Time;durP1;ratioP1;P1;durP2;ratioP2;P2;SDS_P1;SDS_P2;PMS_P1;PMS_P2;Temp;Humidity;BMP_temperature;BMP_pressure;BME280_temperature;BME280_humidity;BME280_pressure;Samples;Min_cycle;Max_cycle;Signal;HPM_P1;HPM_P2
2022/01/19 00:01:16;;;;;;;182.15;24.23;;;;;;;;;;5093150;28;20078;-78
2022/01/19 00:03:43;;;;;;;290.10;27.67;;;;;;;;;;5111506;28;20063;-78
2022/01/19 00:06:11;;;;;;;337.80;24.90;;;;;;;;;;5093414;28;20125;-78
2022/01/19 00:08:38;;;;;;;352.67;25.25;;;;;;;;;;5092740;28;20052;-78
2022/01/19 00:11:04;;;;;;;348.27;28.35;;;;;;;;;;5109281;28;20082;-77
2022/01/19 00:13:31;;;;;;;311.77;23.02;;;;;;;;;;5092574;28;20047;-78
2022/01/19 00:15:57;;;;;;;328.95;26.55;;;;;;;;;;5091808;28;20056;-79
2022/01/19 00:18:24;;;;;;;290.38;25.92;;;;;;;;;;5092964;28;20048;-78
2022/01/19 00:20:51;;;;;;;126.68;18.92;;;;;;;;;;5111488;27;20056;-78
2022/01/19 00:23:18;;;;;;;325.60;32.38;;;;;;;;;;5096674;28;20531;-78
2022/01/19 00:25:46;;;;;;;248.13;24.73;;;;;;;;;;5093536;28;20567;-77
2022/01/19 00:28:12;;;;;;;532.15;41.92;;;;;;;;;;5097042;28;20048;-78
2022/01/19 00:30:39;;;;;;;441.98;39.47;;;;;;;;;;5096516;28;20056;-78
2022/01/19 00:33:06;;;;;;;175.35;22.20;;;;;;;;;;5113942;28;20094;-78
2022/01/19 00:35:36;;;;;;;334.50;28.90;;;;;;;;;;5099744;27;20095;-79
2022/01/19 00:38:03;;;;;;;324.83;27.10;;;;;;;;;;5084342;28;20037;-78
2022/01/19 00:40:30;;;;;;;267.77;19.63;;;;;;;;;;5114766;28;20589;-78
2022/01/19 00:42:57;;;;;;;191.35;19.90;;;;;;;;;;5113953;28;20105;-80
2022/01/19 00:45:23;;;;;;;110.60;15.13;;;;;;;;;;5095945;28;20105;-81
2022/01/19 00:47:50;;;;;;;219.43;17.35;;;;;;;;;;5096176;28;20059;-77
2022/01/19 00:50:21;;;;;;;216.82;19.92;;;;;;;;;;5114461;28;20102;-77
2022/01/19 00:52:49;;;;;;;167.30;16.10;;;;;;;;;;5107974;28;20110;-78
2022/01/19 00:55:15;;;;;;;219.73;19.75;;;;;;;;;;5096794;28;20051;-78
2022/01/19 00:57:42;;;;;;;249.20;21.55;;;;;;;;;;5096114;28;20113;-78
2022/01/19 01:00:10;;;;;;;148.30;15.55;;;;;;;;;;5098225;28;20490;-78
2022/01/19 01:02:36;;;;;;;175.13;16.60;;;;;;;;;;5114071;28;20078;-78
2022/01/19 01:05:03;;;;;;;125.85;14.15;;;;;;;;;;5095761;28;20058;-78
2022/01/19 01:07:33;;;;;;;117.15;13.80;;;;;;;;;;5095576;28;20499;-78
2022/01/19 01:10:00;;;;;;;93.95;12.32;;;;;;;;;;5092154;28;21002;-77
2022/01/19 01:12:42;;;;;;;72.25;11.68;;;;;;;;;;5096063;28;20098;-78
2022/01/19 01:15:28;;;;;;;47.78;10.95;;;;;;;;;;5112897;28;20105;-78
2022/01/19 01:20:32;;;;;;;65.53;11.18;;;;;;;;;;5114884;28;20052;-78
2022/01/19 01:22:59;;;;;;;39.17;9.75;;;;;;;;;;5112925;28;21221;-78
2022/01/19 01:25:25;;;;;;;20.10;9.15;;;;;;;;;;5095161;28;21014;-78
2022/01/19 01:27:52;;;;;;;21.35;9.57;;;;;;;;;;5113682;28;20052;-79
2022/01/19 01:30:19;;;;;;;21.20;8.95;;;;;;;;;;5095099;28;20086;-78
2022/01/19 01:32:46;;;;;;;20.27;9.15;;;;;;;;;;5094576;28;20056;-79
2022/01/19 01:35:12;;;;;;;20.77;9.75;;;;;;;;;;5094827;28;20052;-77
2022/01/19 01:37:39;;;;;;;19.13;8.65;;;;;;;;;;5113055;28;20578;-78
2022/01/19 01:40:08;;;;;;;19.17;8.30;;;;;;;;;;5095729;28;20044;-78
2022/01/19 01:42:34;;;;;;;20.70;8.77;;;;;;;;;;5094376;28;20441;-78
2022/01/19 01:45:02;;;;;;;18.17;8.70;;;;;;;;;;5113818;28;20095;-77
2022/01/19 01:47:29;;;;;;;17.85;8.85;;;;;;;;;;5095868;28;20472;-78
2022/01/19 01:55:09;;;;;;;17.52;8.30;;;;;;;;;;5114527;28;20078;-78
2022/01/19 01:57:36;;;;;;;17.20;8.25;;;;;;;;;;5114361;28;20052;-78
2022/01/19 02:00:04;;;;;;;16.60;8.07;;;;;;;;;;5092634;28;20040;-78
2022/01/19 02:02:30;;;;;;;17.88;8.32;;;;;;;;;;5094610;28;20947;-78
2022/01/19 02:04:57;;;;;;;18.70;8.35;;;;;;;;;;5114245;28;20139;-79
2022/01/19 02:07:41;;;;;;;17.60;8.52;;;;;;;;;;5098129;28;20878;-78
2022/01/19 02:10:16;;;;;;;19.10;8.10;;;;;;;;;;5092497;28;20988;-78
2022/01/19 02:23:49;;;;;;;18.52;8.40;;;;;;;;;;5116332;28;20078;-79
2022/01/19 02:26:27;;;;;;;18.88;8.93;;;;;;;;;;5115665;28;20104;-79
2022/01/19 02:28:59;;;;;;;17.83;8.75;;;;;;;;;;5097999;28;20044;-78
2022/01/19 02:42:30;;;;;;;22.02;8.65;;;;;;;;;;5127089;27;20079;-78
2022/01/19 02:49:51;;;;;;;16.45;8.20;;;;;;;;;;5114318;28;20110;-78
2022/01/19 02:52:18;;;;;;;19.15;9.40;;;;;;;;;;5096518;28;20052;-79
2022/01/19 02:54:45;;;;;;;19.90;8.30;;;;;;;;;;5116236;28;20340;-78
2022/01/19 02:57:13;;;;;;;21.65;9.20;;;;;;;;;;5096495;28;20064;-78
2022/01/19 03:10:48;;;;;;;25.95;9.50;;;;;;;;;;5107586;28;20052;-79
2022/01/19 03:13:15;;;;;;;29.77;10.63;;;;;;;;;;5095540;28;20119;-78
2022/01/19 03:15:41;;;;;;;27.15;10.98;;;;;;;;;;5114522;27;20056;-79
2022/01/19 03:18:07;;;;;;;30.98;11.88;;;;;;;;;;5095677;28;20517;-78
2022/01/19 03:20:34;;;;;;;36.22;11.50;;;;;;;;;;5113646;28;20032;-77
2022/01/19 03:23:10;;;;;;;34.15;12.13;;;;;;;;;;5114319;28;20503;-78
2022/01/19 03:25:38;;;;;;;31.13;11.63;;;;;;;;;;5111758;28;20102;-78
2022/01/19 03:28:05;;;;;;;33.60;11.68;;;;;;;;;;5094442;28;20106;-78
2022/01/19 03:30:32;;;;;;;37.85;13.05;;;;;;;;;;5112660;28;20196;-79
2022/01/19 03:32:59;;;;;;;31.50;12.45;;;;;;;;;;5093781;27;20056;-78
2022/01/19 03:35:25;;;;;;;33.63;12.35;;;;;;;;;;5112597;27;20048;-78
2022/01/19 03:37:51;;;;;;;34.38;12.52;;;;;;;;;;5095318;28;20098;-78
2022/01/19 03:40:18;;;;;;;34.58;13.20;;;;;;;;;;5112948;28;20070;-79
2022/01/19 03:42:44;;;;;;;36.15;14.13;;;;;;;;;;5111786;28;20105;-79
2022/01/19 03:45:11;;;;;;;32.40;12.48;;;;;;;;;;5094074;28;20048;-78
2022/01/19 03:47:45;;;;;;;32.40;12.10;;;;;;;;;;5094307;28;20092;-78
2022/01/19 03:50:11;;;;;;;38.20;12.07;;;;;;;;;;5094300;28;20055;-78
2022/01/19 03:52:38;;;;;;;34.58;12.27;;;;;;;;;;5094362;28;20502;-78
2022/01/19 03:55:05;;;;;;;32.30;12.93;;;;;;;;;;5112634;27;20052;-78
2022/01/19 03:57:32;;;;;;;33.03;11.23;;;;;;;;;;5115356;28;20086;-78
2022/01/19 03:59:58;;;;;;;28.17;11.90;;;;;;;;;;5097844;28;20147;-78
2022/01/19 04:02:25;;;;;;;31.00;11.60;;;;;;;;;;5088104;28;20067;-78
2022/01/19 04:07:33;;;;;;;28.33;10.95;;;;;;;;;;5114974;28;20055;-79
2022/01/19 04:09:59;;;;;;;30.88;11.48;;;;;;;;;;5096643;28;20040;-78
2022/01/19 04:12:42;;;;;;;29.20;10.65;;;;;;;;;;5083827;28;20492;-78
2022/01/19 04:15:09;;;;;;;31.98;10.38;;;;;;;;;;5079717;28;20052;-79
2022/01/19 04:17:40;;;;;;;32.75;10.20;;;;;;;;;;5114283;28;20056;-78
2022/01/19 04:20:07;;;;;;;31.95;11.70;;;;;;;;;;5097447;28;20109;-78
2022/01/19 04:22:34;;;;;;;31.95;11.40;;;;;;;;;;5092869;28;20098;-78
2022/01/19 04:25:00;;;;;;;33.75;11.57;;;;;;;;;;5076005;28;20080;-78
2022/01/19 04:30:08;;;;;;;136.05;17.33;;;;;;;;;;5114983;28;20494;-79
2022/01/19 04:35:15;;;;;;;217.35;21.48;;;;;;;;;;5128631;27;20070;-78
2022/01/19 04:48:48;;;;;;;102.38;17.55;;;;;;;;;;5093898;28;20055;-78
2022/01/19 05:10:02;;;;;;;40.08;13.07;;;;;;;;;;5115115;28;20533;-78
2022/01/19 05:15:14;;;;;;;30.45;11.98;;;;;;;;;;5115427;28;20087;-78
2022/01/19 05:17:41;;;;;;;31.50;12.95;;;;;;;;;;5114908;28;20105;-78
2022/01/19 05:20:08;;;;;;;34.50;12.35;;;;;;;;;;5114266;28;20087;-78
2022/01/19 05:22:34;;;;;;;34.15;12.40;;;;;;;;;;5095709;28;20567;-78
2022/01/19 05:25:01;;;;;;;32.00;12.93;;;;;;;;;;5095516;27;20105;-78
2022/01/19 05:27:27;;;;;;;32.90;13.05;;;;;;;;;;5095077;28;20088;-78
2022/01/19 05:29:54;;;;;;;34.65;13.25;;;;;;;;;;5115186;28;20607;-78
2022/01/19 05:32:20;;;;;;;32.85;13.48;;;;;;;;;;5113667;27;20048;-78
2022/01/19 05:34:46;;;;;;;29.05;12.52;;;;;;;;;;5112099;27;20115;-78
2022/01/19 05:37:13;;;;;;;29.73;12.75;;;;;;;;;;5091609;28;20048;-78
2022/01/19 05:39:39;;;;;;;29.35;12.48;;;;;;;;;;5110247;28;20067;-78
2022/01/19 05:42:06;;;;;;;31.95;12.63;;;;;;;;;;5076325;28;20087;-78
2022/01/19 05:44:32;;;;;;;30.60;12.18;;;;;;;;;;5109006;28;20526;-78
2022/01/19 05:46:58;;;;;;;32.95;12.60;;;;;;;;;;5112116;27;20932;-78
2022/01/19 05:49:25;;;;;;;33.63;13.32;;;;;;;;;;5112642;28;20078;-77
2022/01/19 05:51:51;;;;;;;36.63;13.30;;;;;;;;;;5095696;28;20093;-78
2022/01/19 05:54:20;;;;;;;32.75;13.60;;;;;;;;;;5094812;28;20056;-78
2022/01/19 05:56:46;;;;;;;31.80;12.25;;;;;;;;;;5095522;28;20052;-79
2022/01/19 05:59:12;;;;;;;32.20;13.35;;;;;;;;;;5094724;28;20078;-80
2022/01/19 06:01:39;;;;;;;30.25;12.38;;;;;;;;;;5090996;28;20132;-80
2022/01/19 06:04:06;;;;;;;34.65;13.52;;;;;;;;;;5091966;28;20559;-79
2022/01/19 06:06:32;;;;;;;35.83;13.90;;;;;;;;;;5092240;28;20087;-79
2022/01/19 06:09:01;;;;;;;34.72;13.73;;;;;;;;;;5091463;28;20049;-80
2022/01/19 06:11:27;;;;;;;32.97;13.07;;;;;;;;;;5112786;28;20075;-79
2022/01/19 06:13:53;;;;;;;34.90;13.50;;;;;;;;;;5094041;28;20052;-80
2022/01/19 06:16:20;;;;;;;39.80;14.50;;;;;;;;;;5092615;28;20137;-80
2022/01/19 06:18:46;;;;;;;38.53;13.82;;;;;;;;;;5110373;28;20477;-79
2022/01/19 06:21:13;;;;;;;38.17;14.80;;;;;;;;;;5081416;28;20056;-79
2022/01/19 06:23:40;;;;;;;37.85;14.00;;;;;;;;;;5093759;28;20055;-83
2022/01/19 06:26:06;;;;;;;45.88;16.05;;;;;;;;;;5105902;27;20083;-79
2022/01/19 06:28:33;;;;;;;45.90;15.55;;;;;;;;;;5113454;27;20085;-80
2022/01/19 06:30:59;;;;;;;37.90;13.70;;;;;;;;;;5129144;27;20078;-79
2022/01/19 06:33:26;;;;;;;37.70;14.77;;;;;;;;;;5082408;28;20052;-79
2022/01/19 06:35:53;;;;;;;45.80;15.65;;;;;;;;;;5106165;28;20060;-80
2022/01/19 06:38:21;;;;;;;38.20;15.05;;;;;;;;;;5111357;28;20056;-79
2022/01/19 06:40:47;;;;;;;41.58;14.75;;;;;;;;;;5094783;28;20121;-79
2022/01/19 06:43:14;;;;;;;43.13;16.23;;;;;;;;;;5107135;28;20134;-79
2022/01/19 06:45:40;;;;;;;45.97;15.57;;;;;;;;;;5111137;27;20098;-79
2022/01/19 06:48:07;;;;;;;42.33;16.08;;;;;;;;;;5090269;28;20079;-80
2022/01/19 06:50:33;;;;;;;45.17;17.05;;;;;;;;;;5107555;28;20149;-80
2022/01/19 06:52:59;;;;;;;46.75;16.77;;;;;;;;;;5109757;28;20101;-80
2022/01/19 06:55:26;;;;;;;55.83;18.45;;;;;;;;;;5110050;28;20056;-80
2022/01/19 06:57:52;;;;;;;51.13;18.00;;;;;;;;;;5109392;28;20052;-79
2022/01/19 07:00:18;;;;;;;63.15;18.80;;;;;;;;;;5109765;28;20071;-78
2022/01/19 07:02:45;;;;;;;53.08;19.13;;;;;;;;;;5105945;28;20052;-79
2022/01/19 07:05:11;;;;;;;66.30;20.27;;;;;;;;;;5091369;28;20040;-79
2022/01/19 07:07:38;;;;;;;67.22;22.35;;;;;;;;;;5090428;28;20048;-79
2022/01/19 07:10:05;;;;;;;83.90;24.98;;;;;;;;;;5090304;28;20043;-80
2022/01/19 07:12:32;;;;;;;92.97;26.95;;;;;;;;;;5091892;28;20860;-80
2022/01/19 07:14:58;;;;;;;81.55;26.50;;;;;;;;;;5108181;27;20075;-79
2022/01/19 07:17:24;;;;;;;96.05;26.05;;;;;;;;;;5089133;28;20044;-79
2022/01/19 07:19:51;;;;;;;104.53;29.95;;;;;;;;;;5107567;28;20102;-79
2022/01/19 07:22:17;;;;;;;103.95;29.13;;;;;;;;;;5097925;28;20059;-82
2022/01/19 07:24:44;;;;;;;101.45;28.77;;;;;;;;;;5107022;28;20141;-81
2022/01/19 07:27:10;;;;;;;100.53;28.73;;;;;;;;;;5107709;28;20051;-80
2022/01/19 07:29:36;;;;;;;112.30;30.58;;;;;;;;;;5089325;28;20092;-79
2022/01/19 07:32:03;;;;;;;102.22;28.85;;;;;;;;;;5089776;28;20596;-79
2022/01/19 07:34:29;;;;;;;109.65;29.10;;;;;;;;;;5097453;27;20105;-79
2022/01/19 07:36:56;;;;;;;114.82;31.88;;;;;;;;;;5094875;28;20072;-79
2022/01/19 07:39:23;;;;;;;109.47;31.17;;;;;;;;;;5088796;28;20174;-80
2022/01/19 07:41:50;;;;;;;106.53;31.83;;;;;;;;;;5088813;28;20079;-80
2022/01/19 07:44:17;;;;;;;111.65;32.92;;;;;;;;;;5095656;28;20076;-81
2022/01/19 07:46:43;;;;;;;121.82;33.70;;;;;;;;;;5105104;28;20142;-81
2022/01/19 07:49:09;;;;;;;115.07;31.25;;;;;;;;;;5106995;28;20083;-80
2022/01/19 07:51:36;;;;;;;117.50;33.10;;;;;;;;;;5097368;28;20075;-80
2022/01/19 07:54:02;;;;;;;117.53;33.45;;;;;;;;;;5088826;28;20102;-78
2022/01/19 07:56:29;;;;;;;121.65;35.30;;;;;;;;;;5101553;27;20256;-80
2022/01/19 07:58:55;;;;;;;127.03;39.70;;;;;;;;;;5100841;28;20090;-79
2022/01/19 08:01:22;;;;;;;105.55;32.20;;;;;;;;;;5093768;28;20105;-80
2022/01/19 08:03:49;;;;;;;121.07;36.28;;;;;;;;;;5106641;28;20071;-80
2022/01/19 08:06:15;;;;;;;135.48;40.38;;;;;;;;;;5092178;28;20133;-80
2022/01/19 08:08:41;;;;;;;122.22;35.22;;;;;;;;;;5086456;28;20523;-79
2022/01/19 08:11:08;;;;;;;117.13;33.92;;;;;;;;;;5075371;28;20079;-80
2022/01/19 08:13:35;;;;;;;128.82;37.53;;;;;;;;;;5104993;28;20105;-79
2022/01/19 08:16:01;;;;;;;127.75;37.00;;;;;;;;;;5088670;28;20049;-81
2022/01/19 08:18:28;;;;;;;110.65;33.60;;;;;;;;;;5087979;28;20052;-79
2022/01/19 08:20:54;;;;;;;109.75;33.47;;;;;;;;;;5087563;28;20080;-79
2022/01/19 08:23:21;;;;;;;131.93;34.95;;;;;;;;;;5107079;28;20100;-80
2022/01/19 08:25:47;;;;;;;124.35;34.97;;;;;;;;;;5101694;28;20133;-79
2022/01/19 08:28:14;;;;;;;113.80;32.15;;;;;;;;;;5106140;28;20523;-79
2022/01/19 08:30:40;;;;;;;114.13;33.05;;;;;;;;;;5098255;28;20596;-79
2022/01/19 08:33:06;;;;;;;119.15;33.83;;;;;;;;;;5082979;28;20561;-79
2022/01/19 08:35:33;;;;;;;109.72;32.15;;;;;;;;;;5124191;27;20060;-79
2022/01/19 08:37:59;;;;;;;123.15;34.33;;;;;;;;;;5091057;28;20486;-80
2022/01/19 08:40:28;;;;;;;137.95;36.15;;;;;;;;;;5106671;28;20052;-84
2022/01/19 08:42:55;;;;;;;113.18;32.42;;;;;;;;;;5107964;28;20110;-79
2022/01/19 08:45:22;;;;;;;128.57;33.92;;;;;;;;;;5086773;28;20060;-80
2022/01/19 08:47:48;;;;;;;117.75;32.97;;;;;;;;;;5085732;28;20107;-82
2022/01/19 08:50:15;;;;;;;109.82;33.33;;;;;;;;;;5099974;28;20095;-79
2022/01/19 08:52:43;;;;;;;101.63;32.08;;;;;;;;;;5091474;28;20079;-79
2022/01/19 08:55:10;;;;;;;114.22;32.70;;;;;;;;;;5090651;28;20098;-79
2022/01/19 08:57:37;;;;;;;114.72;31.58;;;;;;;;;;5075888;28;20102;-80
2022/01/19 09:00:08;;;;;;;108.63;33.15;;;;;;;;;;5107628;28;20080;-79
2022/01/19 09:02:34;;;;;;;;;;;;;;;;;;5091061;28;20544;-79
2022/01/19 09:05:02;;;;;;;98.78;29.92;;;;;;;;;;5104867;28;42222;-82
2022/01/19 09:07:29;;;;;;;103.63;31.08;;;;;;;;;;5109584;28;20528;-79
2022/01/19 09:09:56;;;;;;;109.63;32.20;;;;;;;;;;5109511;28;20059;-79
2022/01/19 09:12:22;;;;;;;100.95;32.33;;;;;;;;;;5087531;28;20083;-79
2022/01/19 09:14:49;;;;;;;104.60;32.05;;;;;;;;;;5091050;28;20048;-80
2022/01/19 09:17:15;;;;;;;93.93;32.15;;;;;;;;;;5108562;28;20086;-83
2022/01/19 09:19:42;;;;;;;95.10;30.85;;;;;;;;;;5105426;28;20048;-79
2022/01/19 09:22:09;;;;;;;97.78;30.38;;;;;;;;;;5107089;27;20056;-79
2022/01/19 09:24:37;;;;;;;93.63;30.58;;;;;;;;;;5091319;28;20048;-82
2022/01/19 09:27:04;;;;;;;97.25;32.22;;;;;;;;;;5108872;27;20112;-79
2022/01/19 09:29:31;;;;;;;95.65;32.72;;;;;;;;;;5091335;28;20056;-81
2022/01/19 09:32:00;;;;;;;93.38;29.77;;;;;;;;;;5108666;28;20122;-81
2022/01/19 09:34:27;;;;;;;103.20;34.35;;;;;;;;;;5094972;28;20052;-80
2022/01/19 09:36:53;;;;;;;95.60;31.75;;;;;;;;;;5108570;27;20076;-79
2022/01/19 09:39:22;;;;;;;87.55;30.35;;;;;;;;;;5095780;28;20106;-79
2022/01/19 09:41:49;;;;;;;92.88;31.38;;;;;;;;;;5096530;28;20948;-79
2022/01/19 09:44:17;;;;;;;94.50;31.30;;;;;;;;;;5106948;28;20052;-79
2022/01/19 09:46:44;;;;;;;98.35;33.20;;;;;;;;;;5107271;27;20102;-79
2022/01/19 09:49:11;;;;;;;89.05;30.73;;;;;;;;;;5104877;27;20063;-80
2022/01/19 09:51:38;;;;;;;101.50;31.55;;;;;;;;;;5108921;28;20080;-80
2022/01/19 09:54:05;;;;;;;92.60;31.65;;;;;;;;;;5108686;27;20056;-79
2022/01/19 09:56:31;;;;;;;89.57;32.22;;;;;;;;;;5106176;27;20129;-83
2022/01/19 09:58:58;;;;;;;88.40;29.08;;;;;;;;;;5109059;28;20141;-81
2022/01/19 10:01:25;;;;;;;87.40;30.55;;;;;;;;;;5103010;28;20102;-80
2022/01/19 10:03:52;;;;;;;81.25;29.67;;;;;;;;;;5108029;28;20550;-79
2022/01/19 10:06:19;;;;;;;80.65;29.35;;;;;;;;;;5089206;28;20530;-80
2022/01/19 10:08:46;;;;;;;80.25;28.52;;;;;;;;;;5108198;28;20052;-80
2022/01/19 10:11:16;;;;;;;72.97;29.15;;;;;;;;;;5089760;28;20052;-82
2022/01/19 10:19:14;;;;;;;86.18;30.02;;;;;;;;;;5102456;28;20101;-80
2022/01/19 10:21:57;;;;;;;72.60;27.27;;;;;;;;;;5108333;28;20079;-81
2022/01/19 10:24:46;;;;;;;79.82;28.13;;;;;;;;;;5080452;28;20080;-79
2022/01/19 10:27:31;;;;;;;72.93;27.17;;;;;;;;;;5108277;28;20101;-81
2022/01/19 10:30:04;;;;;;;73.43;27.80;;;;;;;;;;5079565;28;20552;-80
2022/01/19 10:32:36;;;;;;;77.18;29.58;;;;;;;;;;5090253;28;20110;-80
2022/01/19 10:35:12;;;;;;;72.60;27.70;;;;;;;;;;5090586;27;20161;-79
2022/01/19 10:37:38;;;;;;;79.68;27.67;;;;;;;;;;5107993;28;20067;-79
2022/01/19 10:40:05;;;;;;;71.38;28.02;;;;;;;;;;5106235;28;20119;-79
2022/01/19 10:42:32;;;;;;;65.88;27.38;;;;;;;;;;5097482;28;20554;-79
2022/01/19 10:45:05;;;;;;;70.07;27.05;;;;;;;;;;5089471;27;20055;-79
2022/01/19 10:47:43;;;;;;;72.80;27.60;;;;;;;;;;5107051;28;20105;-79
2022/01/19 10:50:14;;;;;;;73.25;26.23;;;;;;;;;;5107316;28;20048;-79
2022/01/19 10:52:42;;;;;;;65.30;27.33;;;;;;;;;;5089800;28;20087;-80
2022/01/19 10:55:11;;;;;;;67.72;26.90;;;;;;;;;;5089008;28;20580;-79
2022/01/19 10:57:38;;;;;;;67.22;28.05;;;;;;;;;;5089732;28;20048;-79
2022/01/19 11:00:23;;;;;;;62.70;26.70;;;;;;;;;;5088778;28;20088;-78
2022/01/19 11:02:50;;;;;;;73.43;26.52;;;;;;;;;;5106711;28;20075;-79
2022/01/19 11:05:17;;;;;;;62.15;26.60;;;;;;;;;;5096297;27;20055;-80
2022/01/19 11:07:44;;;;;;;64.28;27.67;;;;;;;;;;5106997;28;20147;-78
2022/01/19 11:10:18;;;;;;;56.03;23.80;;;;;;;;;;5106945;28;20118;-79
2022/01/19 11:12:47;;;;;;;63.10;26.08;;;;;;;;;;5089883;28;20060;-78
2022/01/19 11:15:15;;;;;;;64.25;25.73;;;;;;;;;;5088799;27;20771;-79
2022/01/19 11:17:42;;;;;;;65.72;26.25;;;;;;;;;;5088566;28;20056;-79
2022/01/19 11:20:10;;;;;;;65.05;27.42;;;;;;;;;;5105547;28;20561;-79
2022/01/19 11:22:36;;;;;;;64.43;26.92;;;;;;;;;;5088717;28;20502;-79
2022/01/19 11:25:22;;;;;;;65.57;26.83;;;;;;;;;;5106979;27;20097;-78
2022/01/19 11:28:09;;;;;;;68.72;27.50;;;;;;;;;;5091334;28;20151;-79
2022/01/19 11:30:36;;;;;;;57.63;25.25;;;;;;;;;;5103274;28;20114;-79
2022/01/19 11:33:24;;;;;;;55.05;25.20;;;;;;;;;;5106870;28;20095;-79
2022/01/19 11:35:55;;;;;;;61.05;25.80;;;;;;;;;;5106530;27;20083;-81
2022/01/19 11:38:39;;;;;;;62.63;26.33;;;;;;;;;;5099042;28;20052;-79
2022/01/19 11:41:08;;;;;;;59.13;24.25;;;;;;;;;;5084436;28;20064;-78
2022/01/19 11:43:36;;;;;;;63.72;26.92;;;;;;;;;;5110090;27;20172;-79
2022/01/19 11:46:03;;;;;;;64.05;27.25;;;;;;;;;;5087962;28;20499;-79
2022/01/19 11:48:34;;;;;;;62.55;26.20;;;;;;;;;;5090053;27;20052;-80
2022/01/19 11:51:19;;;;;;;58.85;25.67;;;;;;;;;;5102181;27;20048;-81
2022/01/19 11:53:58;;;;;;;61.30;25.85;;;;;;;;;;5080005;28;20083;-80
2022/01/19 11:56:24;;;;;;;60.55;27.10;;;;;;;;;;5102174;28;20056;-78
2022/01/19 11:59:01;;;;;;;60.63;25.58;;;;;;;;;;5105946;27;20876;-79
2022/01/19 12:01:28;;;;;;;59.17;26.40;;;;;;;;;;5088776;28;20052;-80
2022/01/19 12:04:11;;;;;;;62.35;27.33;;;;;;;;;;5107432;28;20106;-79
2022/01/19 12:06:37;;;;;;;52.83;25.65;;;;;;;;;;5106334;28;20088;-78
2022/01/19 12:09:07;;;;;;;54.22;24.83;;;;;;;;;;5106527;28;20051;-79
2022/01/19 12:11:36;;;;;;;54.13;24.42;;;;;;;;;;5092523;28;20113;-80
2022/01/19 12:14:34;;;;;;;57.85;26.45;;;;;;;;;;5102447;28;20139;-79
2022/01/19 12:17:04;;;;;;;56.70;25.65;;;;;;;;;;5081286;28;20594;-79
2022/01/19 12:19:39;;;;;;;51.30;24.40;;;;;;;;;;5103265;27;20213;-80
2022/01/19 12:22:08;;;;;;;59.35;25.85;;;;;;;;;;5107164;27;20127;-79
2022/01/19 12:24:34;;;;;;;51.55;23.70;;;;;;;;;;5096688;27;20051;-79
2022/01/19 12:27:03;;;;;;;52.15;24.17;;;;;;;;;;5100389;28;20118;-79
2022/01/19 12:29:33;;;;;;;58.53;24.65;;;;;;;;;;5076459;28;20062;-79
2022/01/19 12:32:00;;;;;;;53.78;24.00;;;;;;;;;;5098447;27;20049;-80
2022/01/19 12:34:40;;;;;;;56.03;24.98;;;;;;;;;;5109009;27;20056;-80
2022/01/19 12:37:07;;;;;;;57.17;23.30;;;;;;;;;;5106199;28;20474;-79
2022/01/19 12:39:35;;;;;;;59.40;24.42;;;;;;;;;;5109031;28;20422;-80
2022/01/19 12:42:03;;;;;;;57.70;24.67;;;;;;;;;;5109464;28;20157;-79
2022/01/19 12:44:42;;;;;;;49.50;22.20;;;;;;;;;;5099226;28;20090;-79
2022/01/19 12:47:29;;;;;;;56.25;22.98;;;;;;;;;;5109120;28;20622;-80
2022/01/19 12:49:55;;;;;;;48.67;23.63;;;;;;;;;;5067944;28;20137;-79
2022/01/19 12:52:25;;;;;;;47.05;22.45;;;;;;;;;;5108021;27;20106;-79
2022/01/19 12:54:53;;;;;;;53.05;24.30;;;;;;;;;;5109088;27;20141;-79
2022/01/19 12:57:19;;;;;;;46.80;22.92;;;;;;;;;;5096308;28;20965;-79
2022/01/19 12:59:47;;;;;;;52.58;23.98;;;;;;;;;;5091486;28;20836;-79
2022/01/19 13:02:14;;;;;;;52.47;24.45;;;;;;;;;;5103061;28;20141;-79
2022/01/19 13:04:42;;;;;;;52.13;24.30;;;;;;;;;;5122267;27;20052;-80
2022/01/19 13:07:20;;;;;;;58.50;24.40;;;;;;;;;;5106467;27;20048;-81
2022/01/19 13:10:17;;;;;;;50.72;23.63;;;;;;;;;;5102264;28;20052;-79
2022/01/19 13:12:54;;;;;;;49.63;23.60;;;;;;;;;;5085904;28;20135;-80
2022/01/19 13:15:41;;;;;;;55.58;25.15;;;;;;;;;;5099502;27;20056;-80
2022/01/19 13:18:09;;;;;;;48.97;22.58;;;;;;;;;;5088241;28;20053;-79
2022/01/19 13:20:35;;;;;;;51.03;23.77;;;;;;;;;;5081759;28;20098;-79
2022/01/19 13:23:04;;;;;;;57.58;24.58;;;;;;;;;;5108986;28;20514;-79
2022/01/19 13:25:32;;;;;;;51.65;23.85;;;;;;;;;;5091283;28;20056;-79
2022/01/19 13:27:59;;;;;;;53.95;24.02;;;;;;;;;;5108412;27;20056;-80
2022/01/19 13:30:31;;;;;;;55.20;23.38;;;;;;;;;;5101334;28;20052;-79
2022/01/19 13:32:57;;;;;;;60.05;25.52;;;;;;;;;;5107639;27;20079;-79
2022/01/19 13:35:25;;;;;;;55.22;24.55;;;;;;;;;;5109196;27;20603;-79
2022/01/19 13:37:55;;;;;;;55.10;23.55;;;;;;;;;;5088919;28;20133;-80
2022/01/19 13:40:22;;;;;;;57.75;24.60;;;;;;;;;;5109141;28;20537;-79
2022/01/19 13:42:50;;;;;;;55.00;24.80;;;;;;;;;;5090061;28;20656;-79
2022/01/19 13:45:29;;;;;;;55.28;22.85;;;;;;;;;;5080160;28;20057;-79
2022/01/19 13:48:20;;;;;;;54.22;24.33;;;;;;;;;;5094974;28;20148;-79
2022/01/19 13:50:44;;;;;;;53.33;22.75;;;;;;;;;;5108560;27;20060;-79
2022/01/19 13:53:12;;;;;;;56.97;23.80;;;;;;;;;;5107925;28;20056;-79
2022/01/19 13:55:38;;;;;;;53.38;24.15;;;;;;;;;;5106190;28;20596;-81
2022/01/19 13:58:05;;;;;;;56.85;24.70;;;;;;;;;;5100816;28;20059;-78
2022/01/19 14:00:31;;;;;;;56.72;23.77;;;;;;;;;;5085777;28;20098;-80
2022/01/19 14:03:02;;;;;;;49.53;23.33;;;;;;;;;;5089452;28;20052;-81
2022/01/19 14:05:41;;;;;;;55.75;24.55;;;;;;;;;;5091683;28;20063;-80
2022/01/19 14:08:08;;;;;;;57.13;25.40;;;;;;;;;;5076742;28;20076;-79
2022/01/19 14:10:44;;;;;;;54.85;23.88;;;;;;;;;;5078800;28;20052;-81
2022/01/19 14:13:25;;;;;;;57.17;23.95;;;;;;;;;;5103487;28;20080;-80
2022/01/19 14:15:55;;;;;;;57.05;23.60;;;;;;;;;;5092859;28;20079;-80
2022/01/19 14:18:22;;;;;;;57.57;24.97;;;;;;;;;;5100854;28;20063;-80
2022/01/19 14:21:04;;;;;;;50.55;23.38;;;;;;;;;;5108698;28;20052;-80
2022/01/19 14:23:31;;;;;;;56.35;22.98;;;;;;;;;;5108802;28;20044;-79
2022/01/19 14:26:11;;;;;;;55.75;23.88;;;;;;;;;;5091239;28;20056;-80
2022/01/19 14:28:38;;;;;;;53.90;23.92;;;;;;;;;;5108096;28;20051;-81
2022/01/19 14:31:05;;;;;;;51.95;22.80;;;;;;;;;;5089255;28;20159;-79
2022/01/19 14:33:46;;;;;;;56.47;22.50;;;;;;;;;;5108029;27;20052;-80
2022/01/19 14:36:20;;;;;;;48.80;21.92;;;;;;;;;;5108287;28;20055;-79
2022/01/19 14:38:47;;;;;;;55.05;22.13;;;;;;;;;;5090791;28;20129;-81
2022/01/19 14:41:19;;;;;;;52.65;22.83;;;;;;;;;;5092928;27;20142;-79
2022/01/19 14:43:56;;;;;;;56.75;23.17;;;;;;;;;;5074358;28;20111;-79
2022/01/19 14:47:05;;;;;;;52.05;22.25;;;;;;;;;;5088024;28;20061;-79
2022/01/19 14:49:34;;;;;;;55.33;22.52;;;;;;;;;;5042179;28;20052;-79
2022/01/19 14:52:01;;;;;;;59.33;23.63;;;;;;;;;;5088554;27;20044;-81
2022/01/19 14:54:27;;;;;;;55.88;24.90;;;;;;;;;;5107256;28;20137;-80
2022/01/19 14:56:54;;;;;;;51.58;21.92;;;;;;;;;;5114864;27;20059;-79
2022/01/19 14:59:22;;;;;;;56.85;22.77;;;;;;;;;;5090362;28;20131;-81
2022/01/19 15:01:59;;;;;;;56.75;22.95;;;;;;;;;;5107668;28;20581;-79
2022/01/19 15:04:25;;;;;;;56.22;22.65;;;;;;;;;;5090747;28;20522;-79
2022/01/19 15:06:52;;;;;;;54.55;23.50;;;;;;;;;;5108260;28;20149;-80
2022/01/19 15:09:22;;;;;;;59.00;23.85;;;;;;;;;;5090067;28;20052;-80
2022/01/19 15:11:49;;;;;;;68.07;24.03;;;;;;;;;;5105281;27;20052;-79
2022/01/19 15:14:15;;;;;;;64.93;26.88;;;;;;;;;;5107674;27;20052;-80
2022/01/19 15:16:42;;;;;;;57.55;24.75;;;;;;;;;;5089467;28;20051;-79
2022/01/19 15:19:08;;;;;;;59.85;24.42;;;;;;;;;;5077729;28;21042;-80
2022/01/19 15:21:35;;;;;;;60.17;24.13;;;;;;;;;;5102057;27;20075;-79
2022/01/19 15:24:04;;;;;;;64.60;24.27;;;;;;;;;;5107737;28;20048;-80
2022/01/19 15:26:34;;;;;;;59.55;24.33;;;;;;;;;;5107698;27;20052;-81
2022/01/19 15:29:01;;;;;;;60.10;24.02;;;;;;;;;;5107906;28;20098;-80
2022/01/19 15:31:32;;;;;;;62.50;24.08;;;;;;;;;;5088152;28;20131;-79
2022/01/19 15:33:59;;;;;;;61.63;24.25;;;;;;;;;;5106884;27;20048;-80
2022/01/19 15:36:25;;;;;;;66.13;23.55;;;;;;;;;;5106740;27;20122;-81
2022/01/19 15:38:53;;;;;;;64.95;24.60;;;;;;;;;;5107154;27;20060;-82
2022/01/19 15:41:19;;;;;;;68.93;24.75;;;;;;;;;;5106802;28;20505;-81
2022/01/19 15:43:46;;;;;;;68.25;25.73;;;;;;;;;;5090329;28;20106;-81
2022/01/19 15:46:12;;;;;;;69.10;24.65;;;;;;;;;;5089656;28;20055;-80
2022/01/19 15:48:59;;;;;;;58.05;23.45;;;;;;;;;;5092453;28;20059;-80
2022/01/19 15:51:25;;;;;;;61.72;23.80;;;;;;;;;;5090807;28;20052;-80
2022/01/19 15:53:53;;;;;;;70.18;23.40;;;;;;;;;;5092043;28;20060;-80
2022/01/19 15:56:21;;;;;;;67.93;24.27;;;;;;;;;;5092693;28;20095;-80
2022/01/19 15:58:48;;;;;;;71.72;27.50;;;;;;;;;;5094108;28;20058;-80